Time;durP1;ratioP1;P1;durP2;ratioP2;P2;SDS_P1;SDS_P2;PMS_P1;PMS_P2;Temp;Humidity;BMP_temperature;BMP_pressure;BME280_temperature;BME280_humidity;BME280_pressure;Samples;Min_cycle;Max_cycle;Signal;HPM_P1;HPM_P2
2022/10/20 00:04:07;;;;;;;26.60;17.15;;;;;;;9.37;68.67;98122.97;10330485;28;20061;-58
2022/10/20 00:09:06;;;;;;;21.23;15.65;;;;;;;9.33;69.33;98111.75;10331115;28;20043;-58
2022/10/20 00:14:05;;;;;;;22.92;15.00;;;;;;;9.39;69.15;98103.16;10330587;28;20033;-58
2022/10/20 00:19:05;;;;;;;25.98;17.75;;;;;;;9.41;68.98;98096.25;10330234;28;20065;-58
2022/10/20 00:24:04;;;;;;;;;;;;;;;9.44;69.68;98091.09;10330067;28;20440;-58
2022/10/20 00:29:03;;;;;;;26.98;17.95;;;;;;;9.44;69.12;98096.28;10331035;28;19940;-58
2022/10/20 00:34:02;;;;;;;26.65;18.80;;;;;;;9.34;69.37;98100.50;10329961;28;20102;-58
2022/10/20 00:39:04;;;;;;;30.75;19.92;;;;;;;9.22;69.68;98093.47;10329449;28;20475;-59
2022/10/20 00:44:41;;;;;;;28.48;19.95;;;;;;;9.17;69.46;98097.72;10330087;28;20081;-58
2022/10/20 00:49:40;;;;;;;28.67;20.50;;;;;;;9.13;69.64;98096.81;10326504;28;20073;-58
2022/10/20 00:54:39;;;;;;;31.33;21.23;;;;;;;9.12;69.98;98096.81;10329245;28;20064;-58
2022/10/20 00:59:39;;;;;;;33.67;21.75;;;;;;;8.96;70.86;98092.34;10329301;28;20076;-58
2022/10/20 01:04:38;;;;;;;29.67;22.92;;;;;;;8.96;71.01;98080.25;10329180;28;20065;-58
2022/10/20 01:09:38;;;;;;;32.00;22.60;;;;;;;8.97;71.27;98078.53;10329354;28;20500;-58
2022/10/20 01:14:45;;;;;;;34.72;23.83;;;;;;;8.86;72.05;98081.88;10329243;28;20071;-58
2022/10/20 01:19:50;;;;;;;31.42;23.45;;;;;;;8.83;72.35;98061.16;10337769;28;20516;-58
2022/10/20 01:24:52;;;;;;;32.70;24.23;;;;;;;8.69;73.40;98078.22;10337086;28;20061;-58
2022/10/20 01:30:05;;;;;;;36.17;24.98;;;;;;;8.67;73.11;98074.78;10336912;28;20068;-58
2022/10/20 01:35:26;;;;;;;44.13;28.08;;;;;;;8.39;74.63;98089.94;10336928;28;20291;-58
2022/10/20 01:40:36;;;;;;;28.95;20.77;;;;;;;8.20;74.98;98090.53;10336839;28;20072;-58
2022/10/20 01:45:37;;;;;;;;;;;;;;;8.16;74.69;98091.34;10336632;28;20061;-58
2022/10/20 01:50:38;;;;;;;28.50;19.92;;;;;;;8.15;74.45;98107.69;10336716;28;19983;-58
2022/10/20 01:55:37;;;;;;;31.10;21.20;;;;;;;7.93;75.58;98109.97;10335723;28;20076;-58
2022/10/20 02:00:38;;;;;;;27.35;18.63;;;;;;;7.83;75.62;98123.59;10336368;28;20073;-58
2022/10/20 02:06:02;;;;;;;27.08;19.67;;;;;;;7.75;75.46;98110.53;10335929;28;20071;-58
2022/10/20 02:11:05;;;;;;;27.27;16.95;;;;;;;7.66;75.77;98111.28;10335353;28;20535;-58
2022/10/20 02:16:11;;;;;;;32.00;17.48;;;;;;;7.66;76.37;98113.88;10335079;28;20483;-58
2022/10/20 02:21:11;;;;;;;24.98;17.00;;;;;;;7.61;75.77;98120.66;10334937;28;20072;-58
2022/10/20 02:26:14;;;;;;;23.48;16.67;;;;;;;7.56;76.33;98124.00;10334571;28;20461;-58
2022/10/20 02:31:13;;;;;;;29.88;18.15;;;;;;;7.39;77.62;98127.13;10333777;28;20069;-58
2022/10/20 02:36:17;;;;;;;28.17;18.15;;;;;;;7.18;79.10;98140.53;10334477;28;20071;-58
2022/10/20 02:41:15;;;;;;;23.25;17.05;;;;;;;7.19;78.33;98142.28;10334978;28;20065;-58
2022/10/20 02:46:15;;;;;;;26.80;17.77;;;;;;;7.21;78.58;98153.47;10333741;28;20038;-58
2022/10/20 02:51:16;;;;;;;33.03;20.42;;;;;;;7.20;78.18;98151.75;10333237;28;20099;-58
2022/10/20 02:56:15;;;;;;;33.60;23.65;;;;;;;7.15;78.66;98152.53;10332683;28;20081;-58
2022/10/20 03:01:14;;;;;;;34.03;23.13;;;;;;;7.13;79.17;98157.66;10333079;28;20343;-58
2022/10/20 03:06:14;;;;;;;37.08;23.33;;;;;;;7.12;80.07;98165.34;10332759;28;20072;-58
2022/10/20 03:11:13;;;;;;;34.72;23.65;;;;;;;7.09;81.08;98171.31;10333160;28;20069;-58
2022/10/20 03:16:12;;;;;;;32.53;22.30;;;;;;;7.18;81.14;98174.06;10332946;28;20140;-58
2022/10/20 03:21:11;;;;;;;35.88;23.67;;;;;;;7.24;80.92;98169.03;10333057;28;20028;-58
2022/10/20 03:26:11;;;;;;;37.05;24.05;;;;;;;7.29;80.75;98176.88;10332728;28;20104;-58
2022/10/20 03:31:10;;;;;;;38.15;25.70;;;;;;;7.28;80.57;98169.09;10332349;28;20547;-58
2022/10/20 03:36:09;;;;;;;38.28;27.20;;;;;;;7.27;80.97;98168.22;10331674;28;20024;-58
2022/10/20 03:41:09;;;;;;;40.05;27.20;;;;;;;7.18;80.82;98174.06;10331782;28;20065;-58
2022/10/20 03:46:10;;;;;;;56.65;35.92;;;;;;;7.03;82.29;98186.69;10331542;28;20069;-58
2022/10/20 03:51:12;;;;;;;49.75;34.72;;;;;;;6.94;81.93;98182.22;10331157;28;20133;-58
2022/10/20 03:56:15;;;;;;;70.18;42.97;;;;;;;6.85;82.01;98199.22;10331471;28;20071;-58
2022/10/20 04:01:17;;;;;;;43.80;28.73;;;;;;;6.74;82.60;98196.41;10330532;28;20934;-58
2022/10/20 04:06:16;;;;;;;39.47;25.10;;;;;;;6.65;82.46;98207.38;10330627;28;20519;-58
2022/10/20 04:11:15;;;;;;;30.42;20.02;;;;;;;6.49;82.13;98216.50;10330623;28;20435;-58
2022/10/20 04:16:14;;;;;;;28.30;18.90;;;;;;;6.37;83.02;98208.47;10330968;28;20025;-58
2022/10/20 04:21:13;;;;;;;28.70;19.75;;;;;;;6.17;83.06;98190.00;10330566;28;20521;-58
2022/10/20 04:26:14;;;;;;;29.73;19.67;;;;;;;6.24;83.47;98219.34;10330788;28;20524;-58
2022/10/20 04:31:13;;;;;;;30.48;20.67;;;;;;;6.07;84.85;98229.22;10325276;28;20104;-58
2022/10/20 04:36:12;;;;;;;29.67;19.38;;;;;;;5.89;84.27;98204.78;10329898;28;20115;-58
2022/10/20 04:41:11;;;;;;;34.28;20.33;;;;;;;5.94;84.29;98221.22;10324340;28;20029;-58
2022/10/20 04:46:10;;;;;;;39.25;24.70;;;;;;;5.89;84.79;98229.69;10329622;28;20191;-58
2022/10/20 04:51:12;;;;;;;47.25;26.75;;;;;;;5.87;84.95;98228.75;10329185;28;20072;-58
2022/10/20 04:56:18;;;;;;;71.28;45.28;;;;;;;5.75;85.34;98226.75;10329213;28;20088;-58
2022/10/20 05:01:18;;;;;;;73.47;45.22;;;;;;;5.68;86.38;98243.75;10329081;28;20072;-58
2022/10/20 05:06:20;;;;;;;69.80;42.92;;;;;;;5.69;86.37;98250.63;10329391;28;20468;-58
2022/10/20 05:11:21;;;;;;;66.13;41.78;;;;;;;5.69;86.30;98250.63;10329052;28;20065;-58
2022/10/20 05:16:20;;;;;;;59.63;39.28;;;;;;;5.70;86.59;98251.50;10328551;28;20120;-58
2022/10/20 05:21:21;;;;;;;;;;;;;;;5.74;86.15;98271.34;10329040;28;20080;-58
2022/10/20 05:26:19;;;;;;;56.95;36.35;;;;;;;5.77;86.53;98276.59;10328362;28;19956;-58
2022/10/20 05:31:21;;;;;;;60.50;37.55;;;;;;;5.86;86.23;98279.41;10325745;28;20029;-58
2022/10/20 05:36:23;;;;;;;62.65;38.50;;;;;;;5.98;86.29;98284.00;10328583;28;20563;-58
2022/10/20 05:41:27;;;;;;;101.53;52.78;;;;;;;6.03;86.97;98294.44;10328970;28;20459;-58
2022/10/20 05:46:29;;;;;;;93.32;54.03;;;;;;;5.98;87.44;98302.03;10330069;28;20106;-58
2022/10/20 05:51:32;;;;;;;73.30;43.65;;;;;;;6.03;86.97;98308.19;10328078;28;20079;-58
2022/10/20 05:56:33;;;;;;;93.13;56.72;;;;;;;6.12;86.19;98321.28;10326274;28;20056;-58
2022/10/20 06:01:46;;;;;;;90.47;55.35;;;;;;;6.17;86.38;98317.13;10326596;28;20072;-58
2022/10/20 06:06:47;;;;;;;84.88;50.05;;;;;;;6.29;86.35;98336.31;10334988;28;20049;-58
2022/10/20 06:11:46;;;;;;;80.63;47.55;;;;;;;6.42;85.98;98350.38;10332673;28;20123;-58
2022/10/20 06:16:49;;;;;;;81.70;51.28;;;;;;;6.46;85.87;98339.31;10336469;28;20072;-58
2022/10/20 06:21:48;;;;;;;81.70;53.50;;;;;;;6.51;86.19;98354.03;10337366;28;20080;-58
2022/10/20 06:26:47;;;;;;;;;;;;;;;6.67;86.14;98369.91;10336703;28;20065;-58
2022/10/20 06:31:48;;;;;;;87.55;52.78;;;;;;;6.83;86.02;98367.72;10336089;28;19921;-58
2022/10/20 06:36:48;;;;;;;96.30;58.33;;;;;;;7.02;85.60;98378.47;10336285;28;20061;-58
2022/10/20 06:41:49;;;;;;;89.07;55.80;;;;;;;7.24;85.61;98370.38;10336420;28;20069;-58
2022/10/20 07:14:43;;;;;;;88.47;54.22;;;;;;;8.46;84.39;98388.31;10570605;27;20437;-57
2022/10/20 07:19:42;;;;;;;97.80;55.63;;;;;;;8.87;83.81;98372.59;10537054;28;20640;-58
2022/10/20 07:24:41;;;;;;;91.43;51.55;;;;;;;9.22;82.13;98373.13;10536493;28;20568;-57
2022/10/20 07:29:40;;;;;;;79.38;48.10;;;;;;;9.60;81.22;98382.31;10536761;28;20381;-58
2022/10/20 07:34:39;;;;;;;66.60;41.65;;;;;;;9.96;79.39;98381.91;10536782;28;20027;-57
2022/10/20 07:39:38;;;;;;;56.55;40.75;;;;;;;10.29;78.35;98372.75;10511683;28;20038;-57
2022/10/20 07:44:37;;;;;;;67.78;42.22;;;;;;;10.62;77.86;98370.44;10494038;28;20786;-57
2022/10/20 07:49:36;;;;;;;57.72;38.83;;;;;;;10.94;76.64;98363.78;10493682;28;20070;-57
2022/10/20 07:54:35;;;;;;;63.67;39.85;;;;;;;11.36;74.97;98368.41;10526184;28;20041;-57
2022/10/20 07:59:34;;;;;;;61.85;40.38;;;;;;;11.83;74.28;98361.69;10527110;28;20513;-58
2022/10/20 08:04:33;;;;;;;60.67;39.50;;;;;;;12.32;73.04;98360.97;10533472;28;20046;-57
2022/10/20 08:09:32;;;;;;;56.88;35.95;;;;;;;12.81;71.93;98361.03;10534266;28;20028;-57
2022/10/20 08:14:32;;;;;;;54.45;34.53;;;;;;;13.29;71.51;98360.09;10513168;28;20027;-57
2022/10/20 08:19:31;;;;;;;58.95;41.22;;;;;;;13.74;69.50;98362.59;10504985;28;20517;-57
2022/10/20 08:24:30;;;;;;;16.85;10.57;;;;;;;14.21;65.74;98353.66;10505886;28;20841;-58
2022/10/20 08:29:29;;;;;;;14.38;9.73;;;;;;;14.76;62.72;98344.63;10504541;28;20039;-57
2022/10/20 08:34:28;;;;;;;13.73;10.48;;;;;;;15.31;61.18;98353.69;10506210;28;20607;-58
2022/10/20 08:39:27;;;;;;;10.18;8.20;;;;;;;15.76;59.18;98348.81;10505503;28;20031;-58
2022/10/20 08:44:30;;;;;;;12.40;8.85;;;;;;;15.93;56.33;98336.44;10505260;28;20398;-58
2022/10/20 08:49:33;;;;;;;12.00;6.80;;;;;;;15.95;52.61;98344.25;10505630;28;20497;-58
2022/10/20 08:54:33;;;;;;;9.77;6.68;;;;;;;16.28;52.52;98348.16;10504756;27;20069;-58
2022/10/20 08:59:34;;;;;;;13.30;7.50;;;;;;;16.74;52.07;98339.56;10503914;28;20075;-58
2022/10/20 09:04:38;;;;;;;9.05;6.07;;;;;;;16.84;49.27;98346.44;10504526;28;20055;-58
2022/10/20 09:09:38;;;;;;;8.35;5.90;;;;;;;16.62;47.85;98338.03;10504343;28;20055;-58
2022/10/20 09:14:37;;;;;;;11.20;6.28;;;;;;;16.44;48.08;98346.16;10503795;28;20071;-58
2022/10/20 09:19:36;;;;;;;8.68;5.88;;;;;;;16.37;48.39;98348.03;10504485;28;20063;-58
2022/10/20 09:24:35;;;;;;;8.30;6.05;;;;;;;16.32;48.37;98344.59;10503354;28;20058;-58
2022/10/20 09:29:37;;;;;;;9.60;5.97;;;;;;;16.36;47.48;98353.28;10503905;28;20084;-58
2022/10/20 09:34:36;;;;;;;8.13;5.82;;;;;;;16.18;47.06;98351.78;10501744;28;20063;-58
2022/10/20 09:39:38;;;;;;;;;;;;;;;16.04;46.45;98345.00;10504407;28;20038;-58
2022/10/20 09:45:00;;;;;;;7.60;4.63;;;;;;;16.31;46.97;98345.50;10503504;28;19958;-58
2022/10/20 09:50:05;;;;;;;8.55;4.18;;;;;;;16.46;45.94;98350.50;10502875;28;20062;-58
2022/10/20 09:55:17;;;;;;;7.30;5.03;;;;;;;17.04;45.18;98348.72;10502842;28;20070;-58
2022/10/20 10:00:30;;;;;;;7.18;4.30;;;;;;;17.51;43.51;98335.63;10502966;28;20055;-59
2022/10/20 10:05:32;;;;;;;6.85;4.40;;;;;;;17.46;42.28;98340.09;10502682;28;20092;-59
2022/10/20 10:10:31;;;;;;;8.32;4.45;;;;;;;17.23;42.33;98324.78;10501987;28;20446;-58
2022/10/20 10:15:33;;;;;;;7.80;4.65;;;;;;;16.87;43.20;98337.66;10502219;28;20594;-58
2022/10/20 10:20:37;;;;;;;9.27;5.15;;;;;;;16.79;43.22;98324.63;10502289;28;20512;-58
2022/10/20 10:25:35;;;;;;;7.85;4.80;;;;;;;16.53;43.40;98309.34;10502708;28;20063;-58
2022/10/20 10:30:37;;;;;;;39.53;35.63;;;;;;;16.61;43.22;98309.25;10498988;28;20103;-58
2022/10/20 10:35:39;;;;;;;16.85;13.25;;;;;;;16.92;43.68;98299.13;10501276;28;20055;-58
2022/10/20 10:41:18;;;;;;;5.55;4.40;;;;;;;17.06;42.04;98286.63;10500372;28;20082;-59
2022/10/20 10:46:27;;;;;;;5.10;3.90;;;;;;;17.01;41.98;98290.25;10499507;28;20078;-58
2022/10/20 10:51:29;;;;;;;;;;;;;;;17.01;41.54;98288.47;10498949;28;20055;-58
2022/10/20 10:56:45;;;;;;;5.82;4.15;;;;;;;17.20;41.74;98278.50;10499844;28;19954;-58
2022/10/20 11:02:14;;;;;;;7.20;4.55;;;;;;;17.14;41.36;98271.63;10499371;28;20055;-58
2022/10/20 11:07:43;;;;;;;8.55;4.50;;;;;;;17.00;42.02;98276.25;10499750;28;20055;-58
2022/10/20 11:13:00;;;;;;;8.10;4.20;;;;;;;17.18;41.32;98269.78;10499667;28;20071;-58
2022/10/20 11:18:15;;;;;;;8.10;4.28;;;;;;;17.06;41.36;98264.78;10500817;28;20301;-58
2022/10/20 11:23:27;;;;;;;24.00;21.50;;;;;;;16.87;41.01;98259.88;10499908;28;20058;-58
2022/10/20 11:28:44;;;;;;;7.28;4.90;;;;;;;17.07;40.98;98250.78;10499813;28;20122;-58
2022/10/20 11:51:50;;;;;;;6.30;4.37;;;;;;;17.71;40.21;98220.59;10549129;27;20756;-55
2022/10/20 11:57:18;;;;;;;5.53;4.90;;;;;;;17.91;40.60;98224.56;10501682;27;20075;-54
2022/10/20 12:02:42;;;;;;;7.57;5.03;;;;;;;18.08;40.25;98213.66;10525027;27;20050;-54
2022/10/20 12:07:49;;;;;;;8.68;4.57;;;;;;;18.10;39.16;98210.06;10502807;28;20048;-54
2022/10/20 12:13:06;;;;;;;6.88;4.45;;;;;;;18.04;38.71;98202.38;10489429;28;20066;-54
2022/10/20 12:18:18;;;;;;;8.68;4.47;;;;;;;18.14;38.92;98209.13;10524313;27;20067;-54
2022/10/20 12:23:45;;;;;;;6.90;3.80;;;;;;;17.99;36.96;98201.63;10531942;27;20059;-55
2022/10/20 12:28:44;;;;;;;6.10;4.70;;;;;;;18.09;37.39;98203.13;10531769;27;20063;-54
2022/10/20 12:33:52;;;;;;;6.95;4.40;;;;;;;17.89;38.62;98205.34;10531868;27;20046;-54
2022/10/20 12:39:10;;;;;;;5.57;4.25;;;;;;;17.84;38.47;98210.69;10531613;27;20481;-54
2022/10/20 12:44:16;;;;;;;5.53;4.25;;;;;;;17.81;38.57;98212.53;10505112;27;20059;-54
2022/10/20 12:49:27;;;;;;;5.03;4.40;;;;;;;17.93;38.51;98213.09;10479944;28;20072;-55
2022/10/20 12:54:33;;;;;;;5.38;4.30;;;;;;;17.90;38.69;98207.94;10461341;28;20482;-54
2022/10/20 12:59:37;;;;;;;5.57;4.10;;;;;;;17.88;38.65;98208.88;10460907;28;20067;-55
2022/10/20 13:04:57;;;;;;;8.27;4.38;;;;;;;17.86;38.19;98215.94;10471364;28;20449;-55
2022/10/20 13:09:56;;;;;;;7.28;4.05;;;;;;;17.79;38.32;98214.34;10502794;28;20067;-54
2022/10/20 13:15:02;;;;;;;7.20;4.35;;;;;;;17.64;37.74;98220.78;10502053;28;20027;-54
2022/10/20 13:20:52;;;;;;;6.65;3.78;;;;;;;17.75;37.48;98218.75;10503901;28;20059;-55
2022/10/20 13:25:55;;;;;;;7.05;4.90;;;;;;;17.73;37.32;98216.19;10469445;28;20884;-55
2022/10/20 13:30:54;;;;;;;5.57;4.30;;;;;;;17.72;37.36;98222.31;10504746;28;20067;-55
2022/10/20 13:36:10;;;;;;;5.70;4.15;;;;;;;17.60;37.30;98225.22;10504634;28;20036;-55
2022/10/20 13:41:17;;;;;;;6.53;4.38;;;;;;;17.65;37.37;98217.22;10503846;28;20059;-55
2022/10/20 13:46:26;;;;;;;6.72;3.95;;;;;;;17.56;37.67;98219.16;10503679;28;20065;-55
2022/10/20 13:51:31;;;;;;;;;;;;;;;17.53;37.62;98224.47;10502677;28;20078;-56
2022/10/20 13:56:35;;;;;;;3.80;3.38;;;;;;;17.49;37.68;98217.56;10503740;28;19962;-55
2022/10/20 14:01:35;;;;;;;5.50;4.20;;;;;;;17.26;37.96;98228.56;10502624;28;20081;-56
2022/10/20 14:06:36;;;;;;;6.95;4.18;;;;;;;17.28;38.29;98225.88;10503132;28;20059;-56
2022/10/20 14:11:35;;;;;;;6.63;4.18;;;;;;;17.10;38.78;98240.25;10502772;28;20069;-56
2022/10/20 14:16:36;;;;;;;6.65;4.20;;;;;;;16.99;39.33;98244.81;10502630;28;20442;-55
2022/10/20 14:21:43;;;;;;;10.90;5.60;;;;;;;17.07;39.54;98235.91;10502188;28;20430;-56
2022/10/20 14:26:44;;;;;;;13.77;6.80;;;;;;;16.97;39.56;98239.59;10502369;28;20085;-55
2022/10/20 14:31:45;;;;;;;9.35;6.00;;;;;;;16.78;39.76;98246.91;10502045;28;20693;-56
2022/10/20 14:36:44;;;;;;;12.45;5.85;;;;;;;16.80;40.18;98245.13;10501652;28;20067;-56
2022/10/20 14:41:45;;;;;;;10.32;5.75;;;;;;;16.70;40.47;98246.19;10501652;28;20074;-56
2022/10/20 14:46:46;;;;;;;7.85;5.10;;;;;;;16.48;40.56;98250.94;10501320;28;20751;-56
2022/10/20 14:51:54;;;;;;;7.60;4.95;;;;;;;16.33;41.00;98240.72;10500902;28;20062;-56
2022/10/20 14:56:56;;;;;;;9.10;5.18;;;;;;;16.22;41.09;98249.59;10501391;28;20066;-56
2022/10/20 15:02:09;;;;;;;8.18;5.00;;;;;;;16.05;41.31;98257.72;10501399;28;20055;-55
2022/10/20 15:07:32;;;;;;;6.25;4.80;;;;;;;15.92;41.50;98250.91;10500972;28;20055;-56
2022/10/20 15:12:41;;;;;;;8.25;5.03;;;;;;;15.72;41.35;98266.03;10500830;28;20063;-56
2022/10/20 15:17:53;;;;;;;9.40;5.60;;;;;;;15.70;41.63;98265.19;10500661;28;20078;-56
2022/10/20 15:22:52;;;;;;;8.57;6.15;;;;;;;15.65;41.99;98273.94;10500605;28;20067;-56
2022/10/20 15:27:51;;;;;;;;;;;;;;;15.60;41.97;98278.38;10499482;28;20031;-56
2022/10/20 15:32:52;;;;;;;18.88;7.18;;;;;;;15.39;42.13;98281.25;10500031;28;19955;-56
2022/10/20 15:37:52;;;;;;;17.30;10.02;;;;;;;15.28;42.05;98289.22;10499161;28;20074;-56
2022/10/20 15:42:51;;;;;;;14.88;10.63;;;;;;;15.17;42.43;98286.72;10499117;28;20055;-56
2022/10/20 15:47:50;;;;;;;;;;;;;;;15.01;43.26;98290.38;10499406;28;20440;-56
2022/10/20 15:52:49;;;;;;;13.52;9.10;;;;;;;14.79;43.48;98300.19;10499022;28;19953;-56
2022/10/20 15:57:50;;;;;;;20.13;12.15;;;;;;;14.52;45.08;98314.28;10498064;28;20103;-55
2022/10/20 16:02:50;;;;;;;23.45;13.18;;;;;;;14.23;45.80;98315.38;10498993;28;20520;-56
2022/10/20 16:07:51;;;;;;;24.98;16.15;;;;;;;13.95;47.03;98314.69;10495496;28;20047;-56
2022/10/20 16:12:51;;;;;;;27.15;17.58;;;;;;;13.68;47.96;98331.31;10498231;28;20066;-56
2022/10/20 16:17:49;;;;;;;;;;;;;;;13.42;48.89;98337.50;10498436;28;20063;-56
2022/10/20 16:22:48;;;;;;;27.20;17.40;;;;;;;13.14;49.80;98340.16;10497790;28;19907;-56
2022/10/20 16:27:47;;;;;;;23.98;17.60;;;;;;;12.87;50.46;98345.41;10491039;28;20027;-56
2022/10/20 16:32:46;;;;;;;25.88;17.08;;;;;;;12.63;51.54;98357.56;10456108;28;20036;-56
2022/10/20 16:37:45;;;;;;;27.63;19.20;;;;;;;12.37;52.26;98364.47;10457901;28;20522;-56
2022/10/20 16:42:44;;;;;;;31.02;19.33;;;;;;;12.18;52.44;98366.13;10457601;28;20502;-56
2022/10/20 16:47:43;;;;;;;24.58;17.17;;;;;;;12.01;53.17;98368.69;10457357;28;20522;-56
2022/10/20 16:52:42;;;;;;;23.55;16.52;;;;;;;11.84;53.36;98384.25;10456571;28;20525;-56
2022/10/20 16:57:41;;;;;;;24.30;16.30;;;;;;;11.66;53.79;98382.41;10460414;28;20090;-56
2022/10/20 17:02:42;;;;;;;22.92;16.58;;;;;;;11.46;54.91;98392.72;10494329;28;20410;-56
2022/10/20 17:07:41;;;;;;;18.45;14.38;;;;;;;11.29;55.44;98390.03;10502444;28;20082;-56
2022/10/20 17:12:40;;;;;;;20.15;14.15;;;;;;;11.15;56.20;98381.25;10501308;28;20116;-56
2022/10/20 17:17:39;;;;;;;28.52;18.77;;;;;;;10.94;57.22;98395.84;10501139;28;20096;-56
2022/10/20 17:22:38;;;;;;;43.50;31.23;;;;;;;10.67;58.83;98404.22;10501385;28;20034;-56
2022/10/20 17:27:37;;;;;;;30.63;20.30;;;;;;;10.59;58.59;98401.56;10500532;28;20418;-56
2022/10/20 17:32:36;;;;;;;31.15;22.20;;;;;;;10.47;60.14;98411.84;10501031;28;20027;-56
2022/10/20 17:37:35;;;;;;;29.02;21.42;;;;;;;10.38;60.86;98406.56;10500147;28;20483;-56
2022/10/20 17:42:34;;;;;;;34.17;25.63;;;;;;;10.27;60.27;98414.22;10497165;28;20032;-56
2022/10/20 17:47:33;;;;;;;30.73;22.13;;;;;;;10.20;61.02;98415.00;10456807;28;20048;-56
2022/10/20 17:52:32;;;;;;;34.58;24.05;;;;;;;10.08;61.18;98415.75;10458210;28;20533;-56
2022/10/20 17:57:31;;;;;;;42.38;27.90;;;;;;;10.02;60.97;98423.44;10457495;28;20032;-56
2022/10/20 18:02:30;;;;;;;83.35;58.85;;;;;;;9.70;64.16;98431.69;10457948;28;20038;-56
2022/10/20 18:07:29;;;;;;;67.53;46.88;;;;;;;9.74;63.72;98427.41;10457397;28;20471;-56
2022/10/20 18:12:28;;;;;;;125.07;87.57;;;;;;;9.64;64.20;98434.19;10457377;28;20031;-56
2022/10/20 18:17:27;;;;;;;99.97;70.97;;;;;;;9.57;63.85;98432.38;10452554;28;20038;-56
2022/10/20 18:22:26;;;;;;;96.50;70.35;;;;;;;9.50;65.33;98438.31;10457055;28;20036;-55
2022/10/20 18:27:25;;;;;;;120.30;82.43;;;;;;;9.46;64.70;98436.53;10456929;28;20039;-56
2022/10/20 18:32:24;;;;;;;99.05;73.97;;;;;;;9.41;65.62;98443.34;10456396;28;20070;-55
2022/10/20 18:37:23;;;;;;;94.03;72.28;;;;;;;9.26;65.96;98437.06;10456159;28;20020;-56
2022/10/20 18:42:22;;;;;;;94.13;69.72;;;;;;;9.14;67.09;98455.88;10456678;28;20094;-56
2022/10/20 18:47:21;;;;;;;73.50;53.78;;;;;;;9.07;66.75;98459.22;10450271;28;20043;-56
2022/10/20 18:52:20;;;;;;;94.43;63.35;;;;;;;9.01;67.32;98468.59;10455844;28;20032;-55
2022/10/20 18:57:19;;;;;;;91.45;61.75;;;;;;;8.92;67.64;98469.31;10455935;28;20479;-55
2022/10/20 19:02:17;;;;;;;77.68;55.78;;;;;;;8.83;68.25;98470.03;10454866;28;20032;-56
2022/10/20 19:07:16;;;;;;;73.82;53.63;;;;;;;8.68;68.76;98469.75;10455282;28;20111;-56
2022/10/20 19:12:16;;;;;;;73.07;52.92;;;;;;;8.59;69.16;98479.94;10455626;28;20043;-56
2022/10/20 19:17:15;;;;;;;;;;;;;;;8.44;69.74;98486.56;10451196;28;20063;-56
2022/10/20 19:22:13;;;;;;;105.70;74.50;;;;;;;8.32;70.19;98481.16;10454829;28;19970;-55
2022/10/20 19:27:12;;;;;;;108.97;81.80;;;;;;;8.22;71.09;98490.44;10454701;28;20107;-56
2022/10/20 19:32:11;;;;;;;112.13;77.85;;;;;;;8.11;71.07;98502.28;10454353;28;20101;-56
2022/10/20 19:37:10;;;;;;;98.72;73.05;;;;;;;8.06;71.87;98498.72;10452299;28;20067;-56
2022/10/20 19:42:10;;;;;;;90.45;62.63;;;;;;;8.00;72.68;98512.38;10454887;28;20039;-56
2022/10/20 19:47:09;;;;;;;101.78;69.93;;;;;;;7.89;72.58;98516.44;10447491;28;20235;-56
2022/10/20 19:52:08;;;;;;;111.15;73.15;;;;;;;7.75;73.20;98526.47;10454424;28;20372;-55
2022/10/20 19:57:07;;;;;;;104.50;70.43;;;;;;;7.66;73.39;98534.91;10453724;28;20101;-55
2022/10/20 20:02:06;;;;;;;83.28;55.15;;;;;;;7.58;74.42;98536.44;10460133;28;20082;-56
2022/10/20 20:07:05;;;;;;;71.85;48.40;;;;;;;7.50;74.70;98556.06;10462396;28;20067;-53
2022/10/20 20:12:04;;;;;;;67.05;43.47;;;;;;;7.41;75.07;98548.09;10461956;28;20106;-53
2022/10/20 20:17:04;;;;;;;54.95;34.15;;;;;;;7.36;75.25;98557.41;10457293;28;20035;-57
2022/10/20 20:22:03;;;;;;;57.90;37.65;;;;;;;7.29;75.10;98553.78;10461400;28;20074;-56
2022/10/20 20:27:02;;;;;;;61.30;38.42;;;;;;;7.21;75.64;98560.44;10461154;28;20031;-54
2022/10/20 20:32:01;;;;;;;78.75;49.25;;;;;;;7.09;76.72;98554.97;10461040;28;20071;-54
2022/10/20 20:37:00;;;;;;;75.18;46.45;;;;;;;6.93;76.31;98548.53;10461140;28;20103;-53
2022/10/20 20:41:59;;;;;;;73.32;47.03;;;;;;;6.87;76.49;98553.56;10460735;28;20885;-54
2022/10/20 20:46:58;;;;;;;67.30;43.40;;;;;;;6.85;76.82;98555.22;10460413;28;20397;-54
2022/10/20 20:51:57;;;;;;;62.78;41.78;;;;;;;6.79;77.34;98566.22;10462133;28;20123;-55
2022/10/20 20:56:56;;;;;;;75.63;48.63;;;;;;;6.69;77.30;98553.94;10461843;28;20539;-54
2022/10/20 21:01:55;;;;;;;70.10;44.33;;;;;;;6.66;77.57;98567.63;10461739;28;20068;-54
2022/10/20 21:06:54;;;;;;;75.13;46.85;;;;;;;6.61;77.53;98567.50;10461451;28;20032;-54
2022/10/20 21:11:53;;;;;;;80.32;51.25;;;;;;;6.48;78.00;98565.41;10460685;28;20039;-55
2022/10/20 21:16:52;;;;;;;78.85;49.30;;;;;;;6.45;78.20;98567.03;10461117;28;20032;-55
2022/10/20 21:21:56;;;;;;;72.60;46.50;;;;;;;6.40;78.95;98567.75;10460925;28;20072;-54
2022/10/20 21:26:55;;;;;;;71.97;46.60;;;;;;;6.30;78.71;98564.88;10460853;28;20068;-55
2022/10/20 21:31:54;;;;;;;62.70;42.03;;;;;;;6.25;79.08;98571.59;10460828;28;20086;-55
2022/10/20 21:36:53;;;;;;;62.25;38.97;;;;;;;6.17;79.09;98574.81;10460795;28;20436;-55
2022/10/20 21:41:52;;;;;;;66.90;40.22;;;;;;;6.08;79.73;98571.97;10459845;28;20038;-54
2022/10/20 21:46:51;;;;;;;73.75;44.25;;;;;;;6.06;79.30;98580.50;10459921;28;20078;-55
2022/10/20 21:51:55;;;;;;;76.25;46.15;;;;;;;5.95;80.56;98583.63;10459741;28;20034;-55
2022/10/20 21:56:55;;;;;;;52.58;34.70;;;;;;;5.91;80.63;98581.78;10457799;28;20514;-55
2022/10/20 22:01:56;;;;;;;54.88;37.60;;;;;;;5.84;81.46;98590.13;10458986;28;20063;-55
2022/10/20 22:06:56;;;;;;;50.60;32.55;;;;;;;5.77;82.38;98603.66;10459267;28;20063;-54
2022/10/20 22:11:58;;;;;;;39.72;25.17;;;;;;;5.71;82.48;98604.31;10458912;28;20563;-54
2022/10/20 22:16:57;;;;;;;35.55;24.08;;;;;;;5.62;82.60;98604.03;10453840;28;20068;-55
2022/10/20 22:21:56;;;;;;;33.05;22.30;;;;;;;5.50;83.02;98601.94;10454143;28;20064;-55
2022/10/20 22:26:55;;;;;;;40.78;28.42;;;;;;;5.39;83.04;98603.31;10455648;28;20074;-54
2022/10/20 22:31:54;;;;;;;43.55;31.73;;;;;;;5.32;83.46;98611.59;10456977;28;20035;-55
2022/10/20 22:36:53;;;;;;;48.13;31.63;;;;;;;5.25;83.37;98617.38;10457836;28;20046;-55
2022/10/20 22:41:52;;;;;;;47.70;31.13;;;;;;;5.12;83.73;98619.53;10457939;28;20115;-54
2022/10/20 22:46:51;;;;;;;49.53;32.28;;;;;;;5.05;83.56;98615.00;10457287;28;20032;-55
2022/10/20 22:51:50;;;;;;;47.47;31.27;;;;;;;5.04;83.83;98612.38;10457244;28;20429;-55
2022/10/20 22:56:51;;;;;;;49.97;32.72;;;;;;;4.97;83.77;98621.59;10456730;28;20406;-55
2022/10/20 23:01:50;;;;;;;50.30;32.22;;;;;;;4.90;84.07;98615.31;10457010;28;20135;-54
2022/10/20 23:06:49;;;;;;;48.80;31.48;;;;;;;4.88;83.84;98614.38;10456726;28;20493;-56
2022/10/20 23:11:48;;;;;;;44.78;30.17;;;;;;;4.85;83.82;98618.53;10456465;28;20032;-56
2022/10/20 23:16:47;;;;;;;47.03;29.98;;;;;;;4.78;84.38;98614.00;10456480;28;20371;-55
2022/10/20 23:21:46;;;;;;;46.75;28.52;;;;;;;4.71;84.41;98612.91;10456084;28;20038;-55
2022/10/20 23:26:44;;;;;;;40.78;27.25;;;;;;;4.64;84.83;98611.81;10456203;28;20035;-55
2022/10/20 23:31:43;;;;;;;42.70;25.85;;;;;;;4.59;84.81;98597.91;10456137;28;20567;-55
2022/10/20 23:36:42;;;;;;;41.85;26.52;;;;;;;4.57;84.85;98599.56;10455856;28;20102;-54
2022/10/20 23:41:41;;;;;;;43.97;29.40;;;;;;;4.59;84.77;98603.03;10455886;28;20115;-55
2022/10/20 23:46:40;;;;;;;42.55;28.55;;;;;;;4.53;85.40;98615.69;10455713;28;20067;-56
2022/10/20 23:51:39;;;;;;;39.50;27.15;;;;;;;4.53;85.57;98619.97;10456064;28;20028;-55
2022/10/20 23:56:38;;;;;;;41.72;27.65;;;;;;;4.48;85.94;98615.53;10455295;28;20032;-55
